sensor_id;sensor_type;location;lat;lon;timestamp;pressure;altitude;pressure_sealevel;temperature;humidity
58698;BME280;44475;53.206;-6.106;2023-02-04T00:01:41;103288.16;;;23.69;39.76
58698;BME280;44475;53.206;-6.106;2023-02-04T00:04:07;103281.09;;;23.65;39.98
58698;BME280;44475;53.206;-6.106;2023-02-04T00:06:34;103288.41;;;23.64;40.15
58698;BME280;44475;53.206;-6.106;2023-02-04T00:09:00;103286.66;;;23.63;40.15
58698;BME280;44475;53.206;-6.106;2023-02-04T00:11:26;103291.28;;;23.61;39.90
58698;BME280;44475;53.206;-6.106;2023-02-04T00:13:52;103291.97;;;23.66;39.71
58698;BME280;44475;53.206;-6.106;2023-02-04T00:16:18;103291.41;;;23.58;40.17
58698;BME280;44475;53.206;-6.106;2023-02-04T00:18:45;103297.78;;;23.58;39.92
58698;BME280;44475;53.206;-6.106;2023-02-04T00:21:11;103293.19;;;23.59;39.99
58698;BME280;44475;53.206;-6.106;2023-02-04T00:23:37;103295.78;;;23.62;39.77
58698;BME280;44475;53.206;-6.106;2023-02-04T00:26:04;103294.59;;;23.68;39.63
58698;BME280;44475;53.206;-6.106;2023-02-04T00:28:30;103289.41;;;23.62;40.24
58698;BME280;44475;53.206;-6.106;2023-02-04T00:30:56;103285.69;;;23.64;39.88
58698;BME280;44475;53.206;-6.106;2023-02-04T00:33:22;103282.94;;;23.64;39.90
58698;BME280;44475;53.206;-6.106;2023-02-04T00:35:49;103285.94;;;23.58;39.85
58698;BME280;44475;53.206;-6.106;2023-02-04T00:38:15;103285.69;;;23.64;39.69
58698;BME280;44475;53.206;-6.106;2023-02-04T00:40:41;103293.44;;;23.54;39.81
58698;BME280;44475;53.206;-6.106;2023-02-04T00:43:07;103290.72;;;23.54;40.06
58698;BME280;44475;53.206;-6.106;2023-02-04T00:45:34;103302.19;;;23.63;39.65
58698;BME280;44475;53.206;-6.106;2023-02-04T00:48:00;103300.44;;;23.60;39.85
58698;BME280;44475;53.206;-6.106;2023-02-04T00:50:26;103309.13;;;23.51;39.84
58698;BME280;44475;53.206;-6.106;2023-02-04T00:52:52;103304.94;;;23.61;39.91
58698;BME280;44475;53.206;-6.106;2023-02-04T00:55:19;103305.91;;;23.60;40.04
58698;BME280;44475;53.206;-6.106;2023-02-04T00:57:45;103299.47;;;23.61;39.69
58698;BME280;44475;53.206;-6.106;2023-02-04T01:00:17;103303.38;;;23.57;39.94
58698;BME280;44475;53.206;-6.106;2023-02-04T01:02:43;103303.19;;;23.60;40.07
58698;BME280;44475;53.206;-6.106;2023-02-04T01:05:09;103301.41;;;23.59;39.88
58698;BME280;44475;53.206;-6.106;2023-02-04T01:07:36;103294.16;;;23.58;39.94
58698;BME280;44475;53.206;-6.106;2023-02-04T01:10:03;103289.38;;;23.63;40.02
58698;BME280;44475;53.206;-6.106;2023-02-04T01:12:30;103294.16;;;23.58;39.89
58698;BME280;44475;53.206;-6.106;2023-02-04T01:14:56;103290.28;;;23.64;40.05
58698;BME280;44475;53.206;-6.106;2023-02-04T01:17:24;103296.56;;;23.66;39.79
58698;BME280;44475;53.206;-6.106;2023-02-04T01:19:53;103299.44;;;23.63;39.75
58698;BME280;44475;53.206;-6.106;2023-02-04T01:22:19;103303.09;;;23.62;39.87
58698;BME280;44475;53.206;-6.106;2023-02-04T01:24:46;103289.75;;;23.55;39.97
58698;BME280;44475;53.206;-6.106;2023-02-04T01:27:32;103301.00;;;23.49;40.16
58698;BME280;44475;53.206;-6.106;2023-02-04T01:29:58;103301.59;;;23.56;40.20
58698;BME280;44475;53.206;-6.106;2023-02-04T01:32:25;103297.88;;;23.57;40.13
58698;BME280;44475;53.206;-6.106;2023-02-04T01:34:51;103309.53;;;23.61;39.67
58698;BME280;44475;53.206;-6.106;2023-02-04T01:37:17;103305.09;;;23.58;39.95
58698;BME280;44475;53.206;-6.106;2023-02-04T01:39:44;103312.34;;;23.59;40.10
58698;BME280;44475;53.206;-6.106;2023-02-04T01:42:11;103307.75;;;23.59;39.68
58698;BME280;44475;53.206;-6.106;2023-02-04T01:44:37;103303.38;;;23.57;40.13
58698;BME280;44475;53.206;-6.106;2023-02-04T01:47:04;103308.66;;;23.60;39.68
58698;BME280;44475;53.206;-6.106;2023-02-04T01:49:32;103314.44;;;23.54;39.79
58698;BME280;44475;53.206;-6.106;2023-02-04T01:51:58;103305.72;;;23.65;39.67
58698;BME280;44475;53.206;-6.106;2023-02-04T01:54:25;103316.88;;;23.60;39.76
58698;BME280;44475;53.206;-6.106;2023-02-04T01:56:52;103311.47;;;23.58;40.01
58698;BME280;44475;53.206;-6.106;2023-02-04T01:59:20;103308.66;;;23.60;40.08
58698;BME280;44475;53.206;-6.106;2023-02-04T02:01:51;103314.38;;;23.55;39.99
58698;BME280;44475;53.206;-6.106;2023-02-04T02:04:23;103311.78;;;23.52;39.91
58698;BME280;44475;53.206;-6.106;2023-02-04T02:06:55;103318.53;;;23.64;39.89
58698;BME280;44475;53.206;-6.106;2023-02-04T02:09:24;103318.72;;;23.59;40.20
58698;BME280;44475;53.206;-6.106;2023-02-04T02:11:51;103329.72;;;23.58;40.01
58698;BME280;44475;53.206;-6.106;2023-02-04T02:14:18;103329.91;;;23.55;39.88
58698;BME280;44475;53.206;-6.106;2023-02-04T02:16:45;103327.00;;;23.58;39.99
58698;BME280;44475;53.206;-6.106;2023-02-04T02:19:14;103325.16;;;23.58;39.92
58698;BME280;44475;53.206;-6.106;2023-02-04T02:21:50;103322.41;;;23.58;39.94
58698;BME280;44475;53.206;-6.106;2023-02-04T02:24:29;103323.94;;;23.66;39.65
58698;BME280;44475;53.206;-6.106;2023-02-04T02:27:02;103319.53;;;23.62;39.86
58698;BME280;44475;53.206;-6.106;2023-02-04T02:29:30;103324.06;;;23.63;39.98
58698;BME280;44475;53.206;-6.106;2023-02-04T02:31:56;103317.19;;;23.54;40.15
58698;BME280;44475;53.206;-6.106;2023-02-04T02:34:26;103321.69;;;23.55;40.12
58698;BME280;44475;53.206;-6.106;2023-02-04T02:36:53;103320.75;;;23.56;39.96
58698;BME280;44475;53.206;-6.106;2023-02-04T02:39:20;103317.34;;;23.51;40.26
58698;BME280;44475;53.206;-6.106;2023-02-04T02:41:47;103320.97;;;23.51;40.22
58698;BME280;44475;53.206;-6.106;2023-02-04T02:44:15;103323.38;;;23.57;40.38
58698;BME280;44475;53.206;-6.106;2023-02-04T02:46:43;103326.44;;;23.51;40.08
58698;BME280;44475;53.206;-6.106;2023-02-04T02:49:16;103317.34;;;23.51;40.24
58698;BME280;44475;53.206;-6.106;2023-02-04T02:51:43;103322.34;;;23.60;40.01
58698;BME280;44475;53.206;-6.106;2023-02-04T02:54:26;103326.91;;;23.42;40.46
58698;BME280;44475;53.206;-6.106;2023-02-04T02:56:56;103325.47;;;23.52;40.08
58698;BME280;44475;53.206;-6.106;2023-02-04T02:59:24;103326.75;;;23.45;40.23
58698;BME280;44475;53.206;-6.106;2023-02-04T03:02:01;103329.16;;;23.51;40.13
58698;BME280;44475;53.206;-6.106;2023-02-04T03:04:33;103324.91;;;23.45;40.35
58698;BME280;44475;53.206;-6.106;2023-02-04T03:07:03;103321.84;;;23.52;40.32
58698;BME280;44475;53.206;-6.106;2023-02-04T03:09:30;103323.06;;;23.46;40.66
58698;BME280;44475;53.206;-6.106;2023-02-04T03:11:56;103319.19;;;23.50;40.42
58698;BME280;44475;53.206;-6.106;2023-02-04T03:14:23;103313.78;;;23.48;40.69
58698;BME280;44475;53.206;-6.106;2023-02-04T03:16:51;103316.69;;;23.45;40.50
58698;BME280;44475;53.206;-6.106;2023-02-04T03:19:20;103312.69;;;23.53;40.44
58698;BME280;44475;53.206;-6.106;2023-02-04T03:21:48;103317.66;;;23.44;40.75
58698;BME280;44475;53.206;-6.106;2023-02-04T03:24:14;103310.97;;;23.50;40.50
58698;BME280;44475;53.206;-6.106;2023-02-04T03:26:41;103301.94;;;23.48;40.18
58698;BME280;44475;53.206;-6.106;2023-02-04T03:29:09;103307.06;;;23.56;40.30
58698;BME280;44475;53.206;-6.106;2023-02-04T03:31:36;103302.38;;;23.58;40.21
58698;BME280;44475;53.206;-6.106;2023-02-04T03:34:05;103302.53;;;23.55;40.09
58698;BME280;44475;53.206;-6.106;2023-02-04T03:36:32;103298.09;;;23.52;40.53
58698;BME280;44475;53.206;-6.106;2023-02-04T03:38:58;103294.25;;;23.56;40.02
58698;BME280;44475;53.206;-6.106;2023-02-04T03:41:25;103295.22;;;23.55;40.25
58698;BME280;44475;53.206;-6.106;2023-02-04T03:43:51;103300.19;;;23.47;40.48
58698;BME280;44475;53.206;-6.106;2023-02-04T03:46:17;103299.06;;;23.51;40.30
58698;BME280;44475;53.206;-6.106;2023-02-04T03:48:43;103305.00;;;23.42;40.62
58698;BME280;44475;53.206;-6.106;2023-02-04T03:51:10;103305.41;;;23.34;40.81
58698;BME280;44475;53.206;-6.106;2023-02-04T03:53:36;103313.28;;;23.40;40.40
58698;BME280;44475;53.206;-6.106;2023-02-04T03:56:02;103316.53;;;23.48;40.12
58698;BME280;44475;53.206;-6.106;2023-02-04T03:58:28;103309.19;;;23.49;40.43
58698;BME280;44475;53.206;-6.106;2023-02-04T04:00:55;103305.44;;;23.52;40.15
58698;BME280;44475;53.206;-6.106;2023-02-04T04:03:21;103309.53;;;23.43;40.44
58698;BME280;44475;53.206;-6.106;2023-02-04T04:05:47;103302.75;;;23.50;40.25
58698;BME280;44475;53.206;-6.106;2023-02-04T04:08:13;103313.97;;;23.45;40.54
58698;BME280;44475;53.206;-6.106;2023-02-04T04:10:40;103309.28;;;23.47;40.53
58698;BME280;44475;53.206;-6.106;2023-02-04T04:13:06;103301.72;;;23.53;40.50
58698;BME280;44475;53.206;-6.106;2023-02-04T04:15:32;103308.56;;;23.44;40.27
58698;BME280;44475;53.206;-6.106;2023-02-04T04:17:59;103301.94;;;23.48;40.59
58698;BME280;44475;53.206;-6.106;2023-02-04T04:20:25;103314.59;;;23.51;40.18
58698;BME280;44475;53.206;-6.106;2023-02-04T04:22:53;103309.78;;;23.56;40.17
58698;BME280;44475;53.206;-6.106;2023-02-04T04:25:19;103301.88;;;23.49;40.33
58698;BME280;44475;53.206;-6.106;2023-02-04T04:27:46;103301.38;;;23.41;40.64
58698;BME280;44475;53.206;-6.106;2023-02-04T04:30:12;103296.81;;;23.42;40.32
58698;BME280;44475;53.206;-6.106;2023-02-04T04:32:38;103304.88;;;23.45;40.25
58698;BME280;44475;53.206;-6.106;2023-02-04T04:35:05;103302.41;;;23.38;40.48
58698;BME280;44475;53.206;-6.106;2023-02-04T04:37:31;103304.88;;;23.45;40.33
58698;BME280;44475;53.206;-6.106;2023-02-04T04:39:59;103303.97;;;23.44;40.51
58698;BME280;44475;53.206;-6.106;2023-02-04T04:42:26;103307.53;;;23.46;40.54
58698;BME280;44475;53.206;-6.106;2023-02-04T04:44:53;103304.88;;;23.45;40.57
58698;BME280;44475;53.206;-6.106;2023-02-04T04:47:19;103301.88;;;23.49;40.20
58698;BME280;44475;53.206;-6.106;2023-02-04T04:49:45;103304.00;;;23.62;39.92
58698;BME280;44475;53.206;-6.106;2023-02-04T04:52:11;103307.84;;;23.58;40.11
58698;BME280;44475;53.206;-6.106;2023-02-04T04:54:37;103313.84;;;23.47;40.46
58698;BME280;44475;53.206;-6.106;2023-02-04T04:57:04;103313.28;;;23.40;40.66
58698;BME280;44475;53.206;-6.106;2023-02-04T04:59:30;103316.31;;;23.53;40.02
58698;BME280;44475;53.206;-6.106;2023-02-04T05:01:56;103306.25;;;23.54;40.00
58698;BME280;44475;53.206;-6.106;2023-02-04T05:04:22;103320.06;;;23.51;40.41
58698;BME280;44475;53.206;-6.106;2023-02-04T05:06:48;103321.44;;;23.42;40.52
58698;BME280;44475;53.206;-6.106;2023-02-04T05:09:15;103314.09;;;23.42;40.55
58698;BME280;44475;53.206;-6.106;2023-02-04T05:11:42;103320.63;;;23.39;40.37
58698;BME280;44475;53.206;-6.106;2023-02-04T05:14:08;103313.38;;;23.38;40.50
58698;BME280;44475;53.206;-6.106;2023-02-04T05:16:34;103317.31;;;23.33;40.71
58698;BME280;44475;53.206;-6.106;2023-02-04T05:19:01;103312.00;;;23.47;40.42
58698;BME280;44475;53.206;-6.106;2023-02-04T05:21:27;103315.56;;;23.49;40.04
58698;BME280;44475;53.206;-6.106;2023-02-04T05:23:53;103316.69;;;23.45;40.13
58698;BME280;44475;53.206;-6.106;2023-02-04T05:26:19;103321.56;;;23.38;40.57
58698;BME280;44475;53.206;-6.106;2023-02-04T05:28:46;103317.94;;;23.38;40.46
58698;BME280;44475;53.206;-6.106;2023-02-04T05:31:12;103329.84;;;23.37;40.67
58698;BME280;44475;53.206;-6.106;2023-02-04T05:33:38;103316.53;;;23.48;40.48
58698;BME280;44475;53.206;-6.106;2023-02-04T05:36:04;103314.19;;;23.41;40.63
58698;BME280;44475;53.206;-6.106;2023-02-04T05:38:31;103316.44;;;23.50;40.49
58698;BME280;44475;53.206;-6.106;2023-02-04T05:40:57;103318.06;;;23.54;40.02
58698;BME280;44475;53.206;-6.106;2023-02-04T05:43:23;103321.09;;;23.48;40.16
58698;BME280;44475;53.206;-6.106;2023-02-04T05:45:49;103323.06;;;23.46;40.53
58698;BME280;44475;53.206;-6.106;2023-02-04T05:48:15;103326.81;;;23.43;40.44
58698;BME280;44475;53.206;-6.106;2023-02-04T05:50:42;103325.69;;;23.47;40.27
58698;BME280;44475;53.206;-6.106;2023-02-04T05:53:08;103314.84;;;23.46;40.30
58698;BME280;44475;53.206;-6.106;2023-02-04T05:55:35;103323.78;;;23.49;40.28
58698;BME280;44475;53.206;-6.106;2023-02-04T05:58:01;103316.06;;;23.58;40.04
58698;BME280;44475;53.206;-6.106;2023-02-04T06:00:27;103310.25;;;23.46;40.17
58698;BME280;44475;53.206;-6.106;2023-02-04T06:02:53;103298.59;;;23.43;40.25
58698;BME280;44475;53.206;-6.106;2023-02-04T06:05:19;103297.28;;;23.50;40.06
58698;BME280;44475;53.206;-6.106;2023-02-04T06:07:48;103300.63;;;23.57;40.08
58698;BME280;44475;53.206;-6.106;2023-02-04T06:10:14;103308.16;;;23.52;40.51
58698;BME280;44475;53.206;-6.106;2023-02-04T06:12:40;103299.31;;;23.46;40.39
58698;BME280;44475;53.206;-6.106;2023-02-04T06:15:07;103307.13;;;23.54;40.43
58698;BME280;44475;53.206;-6.106;2023-02-04T06:17:33;103298.03;;;23.54;40.12
58698;BME280;44475;53.206;-6.106;2023-02-04T06:20:00;103292.41;;;23.57;40.08
58698;BME280;44475;53.206;-6.106;2023-02-04T06:22:26;103293.09;;;23.43;40.25
58698;BME280;44475;53.206;-6.106;2023-02-04T06:24:52;103290.38;;;23.43;40.23
58698;BME280;44475;53.206;-6.106;2023-02-04T06:27:19;103288.44;;;23.45;40.29
58698;BME280;44475;53.206;-6.106;2023-02-04T06:29:52;103291.81;;;23.50;40.24
58698;BME280;44475;53.206;-6.106;2023-02-04T06:32:19;103294.47;;;23.52;40.14
58698;BME280;44475;53.206;-6.106;2023-02-04T06:34:45;103297.16;;;23.53;40.35
58698;BME280;44475;53.206;-6.106;2023-02-04T06:37:12;103302.06;;;23.46;40.64
58698;BME280;44475;53.206;-6.106;2023-02-04T06:39:39;103304.88;;;23.45;40.38
58698;BME280;44475;53.206;-6.106;2023-02-04T06:42:05;103304.53;;;23.51;40.28
58698;BME280;44475;53.206;-6.106;2023-02-04T06:44:31;103299.13;;;23.49;40.41
58698;BME280;44475;53.206;-6.106;2023-02-04T06:46:58;103306.88;;;23.59;40.14
58698;BME280;44475;53.206;-6.106;2023-02-04T06:49:24;103301.59;;;23.56;40.36
58698;BME280;44475;53.206;-6.106;2023-02-04T06:51:51;103306.72;;;23.44;40.54
58698;BME280;44475;53.206;-6.106;2023-02-04T06:54:17;103306.84;;;23.41;40.32
58698;BME280;44475;53.206;-6.106;2023-02-04T06:56:44;103297.22;;;23.52;40.29
58698;BME280;44475;53.206;-6.106;2023-02-04T06:59:11;103297.03;;;23.37;40.42
58698;BME280;44475;53.206;-6.106;2023-02-04T07:01:37;103301.06;;;23.47;40.46
58698;BME280;44475;53.206;-6.106;2023-02-04T07:04:03;103307.19;;;23.53;40.06
58698;BME280;44475;53.206;-6.106;2023-02-04T07:06:29;103302.84;;;23.48;40.25
58698;BME280;44475;53.206;-6.106;2023-02-04T07:08:56;103309.28;;;23.47;40.19
58698;BME280;44475;53.206;-6.106;2023-02-04T07:11:22;103315.81;;;23.45;40.66
58698;BME280;44475;53.206;-6.106;2023-02-04T07:13:48;103304.69;;;23.48;40.42
58698;BME280;44475;53.206;-6.106;2023-02-04T07:16:14;103307.34;;;23.49;40.34
58698;BME280;44475;53.206;-6.106;2023-02-04T07:18:40;103298.19;;;23.51;40.32
58698;BME280;44475;53.206;-6.106;2023-02-04T07:21:07;103304.31;;;23.56;40.33
58698;BME280;44475;53.206;-6.106;2023-02-04T07:23:33;103302.91;;;23.47;40.48
58698;BME280;44475;53.206;-6.106;2023-02-04T07:25:59;103300.34;;;23.44;40.69
58698;BME280;44475;53.206;-6.106;2023-02-04T07:28:25;103305.50;;;23.50;40.42
58698;BME280;44475;53.206;-6.106;2023-02-04T07:30:52;103292.72;;;23.51;40.24
58698;BME280;44475;53.206;-6.106;2023-02-04T07:33:18;103290.59;;;23.38;40.49
58698;BME280;44475;53.206;-6.106;2023-02-04T07:35:44;103291.25;;;23.43;40.34
58698;BME280;44475;53.206;-6.106;2023-02-04T07:38:10;103290.31;;;23.44;40.71
58698;BME280;44475;53.206;-6.106;2023-02-04T07:40:37;103296.19;;;23.54;40.49
58698;BME280;44475;53.206;-6.106;2023-02-04T07:43:04;103287.00;;;23.55;40.45
58698;BME280;44475;53.206;-6.106;2023-02-04T07:45:32;103291.59;;;23.55;40.28
58698;BME280;44475;53.206;-6.106;2023-02-04T07:47:58;103301.47;;;23.57;40.48
58698;BME280;44475;53.206;-6.106;2023-02-04T07:50:24;103283.38;;;23.55;40.39
58698;BME280;44475;53.206;-6.106;2023-02-04T07:52:51;103290.59;;;23.38;40.46
58698;BME280;44475;53.206;-6.106;2023-02-04T07:55:17;103288.28;;;23.48;40.30
58698;BME280;44475;53.206;-6.106;2023-02-04T07:57:43;103293.84;;;23.46;40.17
58698;BME280;44475;53.206;-6.106;2023-02-04T08:00:10;103300.91;;;23.51;40.26
58698;BME280;44475;53.206;-6.106;2023-02-04T08:02:39;103297.16;;;23.53;40.02
58698;BME280;44475;53.206;-6.106;2023-02-04T08:05:07;103305.44;;;23.52;40.30
58698;BME280;44475;53.206;-6.106;2023-02-04T08:07:34;103313.72;;;23.50;40.28
58698;BME280;44475;53.206;-6.106;2023-02-04T08:10:01;103303.72;;;23.49;40.52
58698;BME280;44475;53.206;-6.106;2023-02-04T08:12:27;103308.38;;;23.47;40.16
58698;BME280;44475;53.206;-6.106;2023-02-04T08:14:53;103320.22;;;23.47;40.28
58698;BME280;44475;53.206;-6.106;2023-02-04T08:17:19;103317.53;;;23.28;40.49
58698;BME280;44475;53.206;-6.106;2023-02-04T08:19:46;103307.69;;;23.43;40.58
58698;BME280;44475;53.206;-6.106;2023-02-04T08:22:12;103315.00;;;23.43;40.51
58698;BME280;44475;53.206;-6.106;2023-02-04T08:24:39;103326.00;;;23.41;40.50
58698;BME280;44475;53.206;-6.106;2023-02-04T08:27:05;103324.09;;;23.43;40.24
58698;BME280;44475;53.206;-6.106;2023-02-04T08:29:31;103325.13;;;23.41;40.35
58698;BME280;44475;53.206;-6.106;2023-02-04T08:31:57;103324.31;;;23.38;40.54
58698;BME280;44475;53.206;-6.106;2023-02-04T08:34:24;103317.00;;;23.39;40.39
58698;BME280;44475;53.206;-6.106;2023-02-04T08:36:50;103326.00;;;23.41;40.45
58698;BME280;44475;53.206;-6.106;2023-02-04T08:39:16;103335.75;;;23.47;40.51
58698;BME280;44475;53.206;-6.106;2023-02-04T08:41:42;103328.94;;;23.56;40.32
58698;BME280;44475;53.206;-6.106;2023-02-04T08:44:09;103336.19;;;23.57;40.18
58698;BME280;44475;53.206;-6.106;2023-02-04T08:46:35;103331.47;;;23.41;40.69
58698;BME280;44475;53.206;-6.106;2023-02-04T08:49:01;103331.50;;;23.59;40.07
58698;BME280;44475;53.206;-6.106;2023-02-04T08:51:28;103334.00;;;23.46;40.56
58698;BME280;44475;53.206;-6.106;2023-02-04T08:53:54;103334.56;;;23.53;40.08
58698;BME280;44475;53.206;-6.106;2023-02-04T08:56:21;103333.00;;;23.47;40.60
58698;BME280;44475;53.206;-6.106;2023-02-04T08:58:47;103333.25;;;23.42;40.31
58698;BME280;44475;53.206;-6.106;2023-02-04T09:01:14;103338.59;;;23.45;40.58
58698;BME280;44475;53.206;-6.106;2023-02-04T09:03:40;103354.13;;;23.45;40.57
58698;BME280;44475;53.206;-6.106;2023-02-04T09:06:07;103355.66;;;23.51;40.59
58698;BME280;44475;53.206;-6.106;2023-02-04T09:08:33;103356.69;;;23.48;40.27
58698;BME280;44475;53.206;-6.106;2023-02-04T09:11:00;103355.22;;;23.41;40.66
58698;BME280;44475;53.206;-6.106;2023-02-04T09:13:26;103365.19;;;23.42;40.75
58698;BME280;44475;53.206;-6.106;2023-02-04T09:15:53;103367.94;;;23.42;40.60
58698;BME280;44475;53.206;-6.106;2023-02-04T09:18:19;103377.69;;;23.47;40.65
58698;BME280;44475;53.206;-6.106;2023-02-04T09:20:48;103368.75;;;23.44;40.61
58698;BME280;44475;53.206;-6.106;2023-02-04T09:23:15;103378.81;;;23.43;40.61
58698;BME280;44475;53.206;-6.106;2023-02-04T09:25:43;103379.38;;;23.50;40.45
58698;BME280;44475;53.206;-6.106;2023-02-04T09:28:09;103378.34;;;23.53;40.39
58698;BME280;44475;53.206;-6.106;2023-02-04T09:30:38;103377.38;;;23.54;40.27
58698;BME280;44475;53.206;-6.106;2023-02-04T09:33:04;103372.00;;;23.52;40.55
58698;BME280;44475;53.206;-6.106;2023-02-04T09:35:31;103365.63;;;23.52;40.64
58698;BME280;44475;53.206;-6.106;2023-02-04T09:37:57;103370.22;;;23.51;40.26
58698;BME280;44475;53.206;-6.106;2023-02-04T09:40:26;103369.19;;;23.54;40.43
58698;BME280;44475;53.206;-6.106;2023-02-04T09:42:54;103370.88;;;23.56;40.42
58698;BME280;44475;53.206;-6.106;2023-02-04T09:45:23;103375.47;;;23.56;40.50
58698;BME280;44475;53.206;-6.106;2023-02-04T09:47:52;103382.13;;;23.50;40.71
58698;BME280;44475;53.206;-6.106;2023-02-04T09:50:21;103371.09;;;23.52;40.36
58698;BME280;44475;53.206;-6.106;2023-02-04T09:52:51;103378.34;;;23.53;40.23
58698;BME280;44475;53.206;-6.106;2023-02-04T09:55:20;103378.81;;;23.43;40.42
58698;BME280;44475;53.206;-6.106;2023-02-04T09:57:47;103387.72;;;23.47;40.80
58698;BME280;44475;53.206;-6.106;2023-02-04T10:00:22;103386.56;;;23.53;40.34
58698;BME280;44475;53.206;-6.106;2023-02-04T10:02:49;103387.31;;;23.56;40.38
58698;BME280;44475;53.206;-6.106;2023-02-04T10:05:29;103398.47;;;23.52;40.27
58698;BME280;44475;53.206;-6.106;2023-02-04T10:07:57;103392.69;;;23.38;40.51
58698;BME280;44475;53.206;-6.106;2023-02-04T10:10:25;103403.28;;;23.46;40.61
58698;BME280;44475;53.206;-6.106;2023-02-04T10:13:00;103386.56;;;23.53;40.45
58698;BME280;44475;53.206;-6.106;2023-02-04T10:15:27;103390.94;;;23.57;40.48
58698;BME280;44475;53.206;-6.106;2023-02-04T10:17:57;103393.41;;;23.62;40.42
58698;BME280;44475;53.206;-6.106;2023-02-04T10:20:26;103393.41;;;23.62;40.47
58698;BME280;44475;53.206;-6.106;2023-02-04T10:22:54;103390.31;;;23.50;40.75
58698;BME280;44475;53.206;-6.106;2023-02-04T10:25:23;103392.19;;;23.49;40.41
58698;BME280;44475;53.206;-6.106;2023-02-04T10:27:57;103401.41;;;23.47;40.41
58698;BME280;44475;53.206;-6.106;2023-02-04T10:30:26;103403.56;;;23.59;40.41
58698;BME280;44475;53.206;-6.106;2023-02-04T10:32:52;103409.97;;;23.58;40.48
58698;BME280;44475;53.206;-6.106;2023-02-04T10:35:20;103421.81;;;23.59;40.12
58698;BME280;44475;53.206;-6.106;2023-02-04T10:37:47;103422.00;;;23.56;40.57
58698;BME280;44475;53.206;-6.106;2023-02-04T10:40:30;103415.84;;;23.51;40.51
58698;BME280;44475;53.206;-6.106;2023-02-04T10:42:57;103420.75;;;23.63;40.24
58698;BME280;44475;53.206;-6.106;2023-02-04T10:45:29;103425.13;;;23.67;40.54
58698;BME280;44475;53.206;-6.106;2023-02-04T10:47:56;103425.25;;;23.64;40.15
58698;BME280;44475;53.206;-6.106;2023-02-04T10:50:25;103417.69;;;23.69;40.44
58698;BME280;44475;53.206;-6.106;2023-02-04T10:52:59;103414.69;;;23.56;40.39
58698;BME280;44475;53.206;-6.106;2023-02-04T10:55:46;103419.91;;;23.61;40.62
58698;BME280;44475;53.206;-6.106;2023-02-04T10:58:23;103425.38;;;23.61;40.34
58698;BME280;44475;53.206;-6.106;2023-02-04T11:00:51;103427.22;;;23.61;40.55
58698;BME280;44475;53.206;-6.106;2023-02-04T11:05:49;103416.19;;;23.62;40.52
58698;BME280;44475;53.206;-6.106;2023-02-04T11:08:28;103408.94;;;23.61;40.50
58698;BME280;44475;53.206;-6.106;2023-02-04T11:11:06;103424.38;;;23.64;40.66
58698;BME280;44475;53.206;-6.106;2023-02-04T11:26:35;103416.09;;;23.65;40.42
58698;BME280;44475;53.206;-6.106;2023-02-04T11:32:25;103406.09;;;23.64;40.36
58698;BME280;44475;53.206;-6.106;2023-02-04T11:39:45;103403.28;;;23.66;40.70
58698;BME280;44475;53.206;-6.106;2023-02-04T11:42:38;103412.28;;;23.68;40.38
58698;BME280;44475;53.206;-6.106;2023-02-04T11:45:24;103418.84;;;23.65;40.42
58698;BME280;44475;53.206;-6.106;2023-02-04T11:47:51;103409.09;;;23.58;40.80
58698;BME280;44475;53.206;-6.106;2023-02-04T11:50:26;103409.91;;;23.60;40.61
58698;BME280;44475;53.206;-6.106;2023-02-04T11:52:55;103406.75;;;23.69;40.61
58698;BME280;44475;53.206;-6.106;2023-02-04T11:55:22;103404.81;;;23.72;40.42
58698;BME280;44475;53.206;-6.106;2023-02-04T11:57:52;103381.41;;;23.66;40.41
58698;BME280;44475;53.206;-6.106;2023-02-04T12:00:21;103376.63;;;23.69;40.43
58698;BME280;44475;53.206;-6.106;2023-02-04T12:02:50;103381.59;;;23.61;40.62
58698;BME280;44475;53.206;-6.106;2023-02-04T12:05:20;103394.19;;;23.65;40.46
58698;BME280;44475;53.206;-6.106;2023-02-04T12:07:49;103398.53;;;23.69;40.64
58698;BME280;44475;53.206;-6.106;2023-02-04T12:12:44;103388.41;;;23.72;40.20
58698;BME280;44475;53.206;-6.106;2023-02-04T12:15:16;103377.97;;;23.61;40.46
58698;BME280;44475;53.206;-6.106;2023-02-04T12:17:46;103365.69;;;23.69;40.68
58698;BME280;44475;53.206;-6.106;2023-02-04T12:20:13;103366.34;;;23.75;40.29
58698;BME280;44475;53.206;-6.106;2023-02-04T12:22:39;103372.66;;;23.77;40.21
58698;BME280;44475;53.206;-6.106;2023-02-04T12:25:05;103370.88;;;23.76;40.47
58698;BME280;44475;53.206;-6.106;2023-02-04T12:27:32;103371.56;;;23.79;40.19
58698;BME280;44475;53.206;-6.106;2023-02-04T12:29:58;103371.16;;;23.69;40.55
58698;BME280;44475;53.206;-6.106;2023-02-04T12:32:24;103363.06;;;23.86;40.42
58698;BME280;44475;53.206;-6.106;2023-02-04T12:34:50;103364.84;;;23.87;40.29
58698;BME280;44475;53.206;-6.106;2023-02-04T12:37:17;103360.25;;;23.87;39.88
58698;BME280;44475;53.206;-6.106;2023-02-04T12:39:43;103363.22;;;23.83;40.44
58698;BME280;44475;53.206;-6.106;2023-02-04T12:42:09;103354.03;;;23.84;40.37
58698;BME280;44475;53.206;-6.106;2023-02-04T12:44:35;103365.56;;;23.91;40.23
58698;BME280;44475;53.206;-6.106;2023-02-04T12:47:01;103364.09;;;23.83;40.29
58698;BME280;44475;53.206;-6.106;2023-02-04T12:49:28;103360.88;;;23.93;40.33
58698;BME280;44475;53.206;-6.106;2023-02-04T12:51:54;103365.31;;;23.95;40.19
58698;BME280;44475;53.206;-6.106;2023-02-04T12:54:24;103373.69;;;23.92;39.97
58698;BME280;44475;53.206;-6.106;2023-02-04T12:56:50;103369.25;;;23.89;40.22
58698;BME280;44475;53.206;-6.106;2023-02-04T12:59:18;103376.59;;;23.89;40.34
58698;BME280;44475;53.206;-6.106;2023-02-04T13:01:45;103378.47;;;23.88;40.23
58698;BME280;44475;53.206;-6.106;2023-02-04T13:04:11;103373.28;;;24.00;40.04
58698;BME280;44475;53.206;-6.106;2023-02-04T13:06:37;103383.75;;;23.92;40.42
58698;BME280;44475;53.206;-6.106;2023-02-04T13:09:03;103379.78;;;23.79;40.40